メインページ
METAR-TAF:

METAR-TAF

空港 :

フェアバンクス国際空港

フェアバンクス, アラスカ州, アメリカ合衆国

緯度: 64-48-14N, 経度: 147-52-34W, 海抜: 132m

現時点の気象観測

当レポートは44分前の03:53(UTC)に作成
無風
気温 -25°C
湿度 69%
気圧 995 hPa
視程: 16.1km
高度6500ftの雲は散在している
高度8000ftの千切れ雲あり
高度11000ftの千切れ雲あり

METAR: PAFA 150353Z 00000KT 10SM SCT065 BKN080 BKN110 M25/M29 A2937 RMK AO2 SLP962 T12501289 PNO

時間: 19:37 (04:37 UTC)

予報

当レポートは5時間5分前の23:32(UTC)に作成
予報は15日の 00時(UTC)から 16日の 06時(UTC)まで有効
の風 kt
視程: 10km
高度5000ftの雲はほとんどない
高度10000ftの千切れ雲あり
高度15000ftの千切れ雲あり
15日の 1200時(UTC)から
の風 kt
視程: 9.7km
高度2500ftの雲は散在している
高度3500ftの千切れ雲あり
高度5000ftの曇り
小雪, 靄
15日の 1500時(UTC)から
の風 kt
視程: 6.4km
高度2500ftの千切れ雲あり
高度3500ftの曇り
小雪, 靄
15日の 1800時(UTC)から
の風 kt
視程: 10km
高度2500ftの雲は散在している
高度3500ftの千切れ雲あり
高度5000ftの曇り
近辺でにわか雨

TAF: PAFA 142332Z 1500/1606 00000KT P6SM FEW050 BKN100 BKN150 FM151200 00000KT 6SM -SN BR SCT025 BKN035 OVC050 FM151500 00000KT 4SM -SN BR BKN025 OVC035 FM151800 00000KT P6SM VCSH SCT025 BKN035 OVC050

4,000以上の空港の気象観測と天気予報(METAR報とTAF報)

利用可能な観測所は地図上に黄色い丸と赤い丸で示す。

丸の上にカーソルを重ねると観測所名を参照できる。

次にクリックすると気象観測と天気予報を参照できる。

マップの切り替え:黒色「×」印の緑ボタンをクリックして拡大、「-」印の緑ボタンをクリックして縮小、緑色の三角印をクリックして隣りの地図に切り替え


METAR-TAF: